Time;durP1;ratioP1;P1;durP2;ratioP2;P2;SDS_P1;SDS_P2;PMS_P1;PMS_P2;Temp;Humidity;BMP_temperature;BMP_pressure;BME280_temperature;BME280_humidity;BME280_pressure;Samples;Min_cycle;Max_cycle;Signal;HPM_P1;HPM_P2
2022/12/21 00:01:27;;;;;;;11.48;8.93;;;;;;;7.88;100.00;100315.78;6212570;23;20081;-78
2022/12/21 00:04:03;;;;;;;12.65;10.13;;;;;;;7.85;100.00;100305.34;6212732;23;20031;-77
2022/12/21 00:06:33;;;;;;;20.17;9.50;;;;;;;7.84;100.00;100303.66;6184023;23;20016;-77
2022/12/21 00:09:03;;;;;;;12.75;10.02;;;;;;;7.81;100.00;100301.91;6212627;23;20070;-78
2022/12/21 00:11:33;;;;;;;15.07;9.48;;;;;;;7.82;100.00;100306.22;6238658;23;20454;-78
2022/12/21 00:14:01;;;;;;;16.00;10.38;;;;;;;7.81;100.00;100299.31;6214140;23;20019;-78
2022/12/21 00:16:33;;;;;;;14.65;10.40;;;;;;;7.81;100.00;100301.03;6187897;23;20019;-78
2022/12/21 00:19:01;;;;;;;13.30;10.50;;;;;;;7.80;100.00;100299.31;6212361;23;20019;-79
2022/12/21 00:21:37;;;;;;;13.05;10.57;;;;;;;7.78;100.00;100296.69;6186906;23;20023;-79
2022/12/21 00:24:05;;;;;;;14.18;10.73;;;;;;;7.77;100.00;100293.22;6211752;23;20078;-79
2022/12/21 00:26:36;;;;;;;15.63;10.32;;;;;;;7.78;100.00;100291.47;6212523;23;20012;-79
2022/12/21 00:29:04;;;;;;;13.77;10.65;;;;;;;7.75;100.00;100288.91;6211980;23;20044;-78
2022/12/21 00:31:34;;;;;;;18.00;11.88;;;;;;;7.74;100.00;100290.66;6213330;23;20008;-78
2022/12/21 00:34:01;;;;;;;18.83;12.82;;;;;;;7.74;100.00;100289.75;6212878;23;20017;-78
2022/12/21 00:36:30;;;;;;;13.77;10.35;;;;;;;7.75;100.00;100286.28;6210199;23;20024;-78
2022/12/21 00:38:57;;;;;;;14.30;11.02;;;;;;;7.74;100.00;100285.44;6187406;23;20020;-78
2022/12/21 00:41:26;;;;;;;13.27;11.30;;;;;;;7.75;100.00;100273.25;6214144;23;20016;-78
2022/12/21 00:43:57;;;;;;;17.85;11.55;;;;;;;7.75;100.00;100281.09;6239463;23;20044;-78
2022/12/21 00:46:29;;;;;;;16.77;11.23;;;;;;;7.73;100.00;100285.41;6211690;23;20016;-78
2022/12/21 00:48:57;;;;;;;16.02;11.23;;;;;;;7.73;100.00;100285.41;6212510;23;20048;-78
2022/12/21 00:51:26;;;;;;;15.70;11.57;;;;;;;7.72;100.00;100296.75;6212292;23;20066;-78
2022/12/21 00:53:55;;;;;;;15.48;12.20;;;;;;;7.70;100.00;100293.25;6212432;23;20020;-78
2022/12/21 00:56:23;;;;;;;17.75;13.27;;;;;;;7.69;100.00;100295.00;6212199;23;20619;-78
2022/12/21 00:58:49;;;;;;;15.38;11.40;;;;;;;7.69;100.00;100294.13;6212146;23;20079;-78
2022/12/21 01:01:27;;;;;;;15.30;12.35;;;;;;;7.71;100.00;100303.66;6214410;23;20108;-78
2022/12/21 01:03:55;;;;;;;15.50;11.88;;;;;;;7.71;100.00;100297.59;6241095;23;20431;-77
2022/12/21 01:06:25;;;;;;;11.82;9.57;;;;;;;7.70;100.00;100295.84;6215355;23;20008;-78
2022/12/21 01:08:52;;;;;;;15.48;11.18;;;;;;;7.68;100.00;100292.38;6213968;23;20974;-78
2022/12/21 01:11:20;;;;;;;13.77;9.93;;;;;;;7.66;100.00;100294.13;6213791;23;20016;-78
2022/12/21 01:13:48;;;;;;;15.05;11.50;;;;;;;7.65;100.00;100298.47;6214248;23;20019;-78
2022/12/21 01:16:22;;;;;;;14.35;11.25;;;;;;;7.63;100.00;100305.44;6186245;23;20020;-78
2022/12/21 01:18:49;;;;;;;13.70;11.48;;;;;;;7.62;100.00;100307.16;6211193;23;20020;-78
2022/12/21 01:21:25;;;;;;;16.33;12.65;;;;;;;7.62;100.00;100312.38;6211537;23;20706;-78
2022/12/21 01:23:53;;;;;;;15.80;11.95;;;;;;;7.62;100.00;100317.56;6211848;23;20118;-78
2022/12/21 01:26:19;;;;;;;16.60;12.00;;;;;;;7.61;100.00;100320.19;6210403;23;20023;-78
2022/12/21 01:28:46;;;;;;;13.73;11.02;;;;;;;7.61;100.00;100323.69;6212416;23;20016;-79
2022/12/21 01:31:14;;;;;;;18.25;12.75;;;;;;;7.61;100.00;100323.69;6212384;23;20341;-78
2022/12/21 01:33:41;;;;;;;16.50;12.82;;;;;;;7.61;100.00;100317.59;6212371;23;20474;-78
2022/12/21 01:36:19;;;;;;;17.60;12.57;;;;;;;7.60;100.00;100318.44;6237297;23;20096;-78
2022/12/21 01:38:47;;;;;;;;;;;;;;;7.60;100.00;100323.66;6236816;23;20123;-78
2022/12/21 01:41:25;;;;;;;17.17;12.52;;;;;;;7.59;100.00;100319.34;6238701;23;19976;-78
2022/12/21 01:44:01;;;;;;;17.70;12.30;;;;;;;7.56;100.00;100321.94;6212417;23;20026;-78
2022/12/21 01:46:45;;;;;;;18.38;12.20;;;;;;;7.56;100.00;100330.63;6211132;23;20015;-78
2022/12/21 01:49:22;;;;;;;15.40;12.23;;;;;;;7.55;100.00;100318.47;6186653;23;20459;-79
2022/12/21 01:51:58;;;;;;;12.65;10.68;;;;;;;7.56;100.00;100330.63;6212546;23;20020;-78
2022/12/21 01:54:46;;;;;;;16.85;12.20;;;;;;;7.58;100.00;100328.88;6236921;23;20066;-78
2022/12/21 01:57:14;;;;;;;13.77;11.55;;;;;;;7.58;100.00;100322.81;6184064;23;20047;-78
2022/12/21 01:59:46;;;;;;;16.80;11.75;;;;;;;7.58;100.00;100318.47;6186536;23;20043;-78
2022/12/21 02:02:20;;;;;;;15.75;11.30;;;;;;;7.58;100.00;100328.03;6186283;23;20020;-79
2022/12/21 02:04:47;;;;;;;14.45;12.10;;;;;;;7.56;100.00;100325.44;6211707;23;20023;-78
2022/12/21 02:07:14;;;;;;;14.57;11.65;;;;;;;7.55;100.00;100328.91;6210112;23;20062;-78
2022/12/21 02:09:41;;;;;;;12.52;10.55;;;;;;;7.57;100.00;100321.97;6209379;23;20435;-77
2022/12/21 02:12:14;;;;;;;14.13;11.15;;;;;;;7.57;100.00;100324.56;6236190;23;20020;-77
2022/12/21 02:14:46;;;;;;;16.65;12.63;;;;;;;7.58;100.00;100317.59;6185390;23;20016;-77
2022/12/21 02:17:46;;;;;;;17.13;12.57;;;;;;;7.59;100.00;100322.81;6211121;23;20034;-77
2022/12/21 02:20:59;;;;;;;16.02;12.43;;;;;;;7.60;100.00;100321.94;6210726;23;20016;-78
2022/12/21 02:24:09;;;;;;;17.05;11.65;;;;;;;7.61;100.00;100317.59;6212638;23;20327;-77
2022/12/21 02:26:48;;;;;;;16.33;11.60;;;;;;;7.62;100.00;100314.13;6237129;23;20007;-78
2022/12/21 02:29:48;;;;;;;12.95;11.45;;;;;;;7.62;100.00;100314.97;6210891;23;20016;-78
2022/12/21 02:32:43;;;;;;;15.93;11.70;;;;;;;7.62;100.00;100314.13;6212752;23;20020;-78
2022/12/21 02:35:30;;;;;;;15.27;11.93;;;;;;;7.61;100.00;100313.25;6213341;23;20419;-78
2022/12/21 02:38:35;;;;;;;13.57;12.10;;;;;;;7.62;100.00;100314.97;6214331;23;20485;-78
2022/12/21 02:41:41;;;;;;;13.90;11.55;;;;;;;7.62;100.00;100319.31;6241367;23;20423;-78
2022/12/21 02:44:49;;;;;;;16.98;13.95;;;;;;;7.63;100.00;100323.66;6213475;23;20442;-78
2022/12/21 02:47:31;;;;;;;16.33;12.65;;;;;;;7.61;100.00;100326.28;6211964;23;20335;-79
2022/12/21 02:50:24;;;;;;;17.88;13.25;;;;;;;7.61;100.00;100328.00;6213883;23;20016;-78
2022/12/21 02:52:58;;;;;;;18.13;13.02;;;;;;;7.58;100.00;100330.63;6212716;23;20083;-78
2022/12/21 02:55:27;;;;;;;18.98;13.57;;;;;;;7.59;100.00;100337.56;6212383;23;20013;-77
2022/12/21 02:58:15;;;;;;;18.23;13.02;;;;;;;7.58;100.00;100334.09;6211322;23;20083;-78
2022/12/21 03:01:00;;;;;;;15.25;13.32;;;;;;;7.58;100.00;100325.41;6210026;23;20631;-78
2022/12/21 03:03:51;;;;;;;17.65;13.00;;;;;;;7.56;100.00;100332.34;6210120;23;20066;-78
2022/12/21 03:06:59;;;;;;;18.33;13.93;;;;;;;7.56;100.00;100330.63;6185778;23;20016;-78
2022/12/21 03:09:29;;;;;;;22.70;13.10;;;;;;;7.57;100.00;100323.69;6210729;23;20043;-78
2022/12/21 03:12:21;;;;;;;17.45;13.05;;;;;;;7.56;100.00;100332.34;6238375;23;20039;-78
2022/12/21 03:15:10;;;;;;;16.92;13.85;;;;;;;7.57;100.00;100329.78;6212071;23;20373;-78
2022/12/21 03:18:05;;;;;;;18.27;12.95;;;;;;;7.58;100.00;100322.81;6210000;23;20036;-77
2022/12/21 03:20:42;;;;;;;17.15;13.18;;;;;;;7.58;100.00;100323.66;6186240;23;20693;-77
2022/12/21 03:23:23;;;;;;;16.23;12.52;;;;;;;7.60;100.00;100321.06;6184690;23;20098;-79
2022/12/21 03:26:06;;;;;;;18.50;13.45;;;;;;;7.59;100.00;100315.00;6211395;23;20027;-79
2022/12/21 03:28:37;;;;;;;17.70;13.57;;;;;;;7.60;100.00;100323.66;6239816;23;20018;-79
2022/12/21 03:31:26;;;;;;;19.23;14.35;;;;;;;7.57;100.00;100313.25;6219612;23;20088;-78
2022/12/21 03:34:03;;;;;;;23.48;15.68;;;;;;;7.56;100.00;100316.72;6190853;23;20099;-79
2022/12/21 03:36:42;;;;;;;15.73;13.13;;;;;;;7.55;100.00;100315.88;6212738;23;20039;-79
2022/12/21 03:39:16;;;;;;;17.67;13.55;;;;;;;7.55;100.00;100326.28;6212922;23;20853;-79
2022/12/21 03:41:57;;;;;;;18.63;14.30;;;;;;;7.54;100.00;100321.94;6212896;23;20062;-79
2022/12/21 03:44:37;;;;;;;18.55;13.43;;;;;;;7.54;100.00;100326.28;6188809;23;20039;-79
2022/12/21 03:47:34;;;;;;;17.58;14.27;;;;;;;7.54;100.00;100327.16;6183986;23;20104;-77
2022/12/21 03:50:06;;;;;;;17.17;13.95;;;;;;;7.54;100.00;100327.16;6238006;23;20020;-77
2022/12/21 03:52:47;;;;;;;21.60;15.52;;;;;;;7.56;100.00;100327.16;6209404;23;20020;-78
2022/12/21 03:55:22;;;;;;;21.30;14.48;;;;;;;7.56;100.00;100322.81;6214871;23;20016;-78
2022/12/21 03:57:50;;;;;;;17.45;13.65;;;;;;;7.56;100.00;100316.72;6213720;23;20071;-77
2022/12/21 04:00:17;;;;;;;22.45;14.73;;;;;;;7.56;100.00;100311.50;6213420;23;20401;-78
2022/12/21 04:03:13;;;;;;;18.98;15.15;;;;;;;7.55;100.00;100315.88;6212918;23;20326;-78
2022/12/21 04:05:52;;;;;;;18.48;14.10;;;;;;;7.53;100.00;100321.94;6213814;23;20027;-76
2022/12/21 04:08:19;;;;;;;22.00;13.98;;;;;;;7.53;100.00;100328.00;6214601;23;20020;-78
2022/12/21 04:10:48;;;;;;;19.55;14.25;;;;;;;7.53;100.00;100322.81;6213061;23;20433;-77
2022/12/21 04:13:14;;;;;;;20.08;14.93;;;;;;;7.53;100.00;100324.56;6213037;23;20095;-78
2022/12/21 04:21:03;;;;;;;18.02;13.68;;;;;;;7.50;100.00;100322.81;6210369;23;20059;-79
2022/12/21 04:28:58;;;;;;;18.23;12.30;;;;;;;7.50;100.00;100303.75;6238353;23;19912;-78
2022/12/21 04:31:24;;;;;;;24.20;14.70;;;;;;;7.49;100.00;100310.66;6239015;23;20012;-78
2022/12/21 04:33:51;;;;;;;16.63;12.07;;;;;;;7.47;100.00;100311.53;6212723;23;20016;-78
2022/12/21 04:39:01;;;;;;;18.38;13.57;;;;;;;7.43;100.00;100318.47;6216244;23;20366;-77
2022/12/21 04:41:28;;;;;;;19.45;13.80;;;;;;;7.41;100.00;100315.88;6186674;23;20021;-77
2022/12/21 04:43:55;;;;;;;16.90;13.73;;;;;;;7.40;100.00;100323.69;6212600;23;20434;-78
2022/12/21 04:46:22;;;;;;;16.23;12.65;;;;;;;7.38;100.00;100313.28;6211630;23;20711;-78
2022/12/21 04:48:49;;;;;;;17.90;12.63;;;;;;;7.37;100.00;100321.13;6211702;23;20012;-77
2022/12/21 04:51:24;;;;;;;18.25;13.25;;;;;;;7.35;100.00;100315.03;6213426;23;20073;-77
2022/12/21 04:53:52;;;;;;;17.90;13.63;;;;;;;7.33;100.00;100315.03;6213128;23;20095;-79
2022/12/21 04:56:19;;;;;;;20.35;14.98;;;;;;;7.30;100.00;100322.88;6212470;23;20016;-78
2022/12/21 04:58:46;;;;;;;19.15;14.40;;;;;;;7.27;100.00;100321.13;6209901;23;20020;-80
2022/12/21 05:01:17;;;;;;;20.33;15.45;;;;;;;7.27;100.00;100326.34;6187317;23;20020;-79
2022/12/21 05:03:44;;;;;;;20.05;14.45;;;;;;;7.25;100.00;100311.59;6214540;23;20023;-79
2022/12/21 05:06:13;;;;;;;20.60;13.90;;;;;;;7.24;100.00;100321.09;6215976;23;20023;-78
2022/12/21 05:08:39;;;;;;;19.65;13.93;;;;;;;7.23;100.00;100319.38;6215766;23;20047;-78
2022/12/21 05:11:12;;;;;;;18.98;13.57;;;;;;;7.21;100.00;100315.03;6215327;23;20016;-78
2022/12/21 05:13:40;;;;;;;18.02;12.75;;;;;;;7.22;100.00;100316.78;6238253;23;20012;-80
2022/12/21 05:16:10;;;;;;;19.23;13.40;;;;;;;7.22;100.00;100314.16;6211077;23;20012;-78
2022/12/21 05:18:37;;;;;;;21.83;14.43;;;;;;;7.22;100.00;100315.06;6211839;23;20008;-78
2022/12/21 05:21:04;;;;;;;21.67;14.13;;;;;;;7.25;100.00;100316.78;6236620;23;20012;-78
2022/12/21 05:23:30;;;;;;;21.38;14.15;;;;;;;7.25;100.00;100314.19;6235634;23;20016;-79
2022/12/21 05:25:57;;;;;;;19.77;13.20;;;;;;;7.27;100.00;100310.72;6214586;23;20023;-78
2022/12/21 05:28:23;;;;;;;18.52;13.02;;;;;;;7.29;100.00;100305.50;6214934;23;20008;-78
2022/12/21 05:30:50;;;;;;;21.58;14.05;;;;;;;7.31;100.00;100308.09;6186687;23;20024;-78
2022/12/21 05:33:16;;;;;;;20.38;13.82;;;;;;;7.31;100.00;100315.91;6187824;23;20027;-79
2022/12/21 05:35:43;;;;;;;22.27;14.85;;;;;;;7.32;100.00;100305.47;6189740;23;20016;-78
2022/12/21 05:38:10;;;;;;;18.08;12.23;;;;;;;7.33;100.00;100303.75;6216129;23;20012;-78
2022/12/21 05:40:36;;;;;;;20.90;13.82;;;;;;;7.34;100.00;100308.06;6214109;23;20004;-78
2022/12/21 05:43:04;;;;;;;19.20;13.40;;;;;;;7.34;100.00;100297.66;6212626;23;20012;-78
2022/12/21 05:45:31;;;;;;;20.85;12.45;;;;;;;7.35;100.00;100294.19;6189205;23;20020;-78
2022/12/21 05:47:58;;;;;;;20.85;13.25;;;;;;;7.33;100.00;100285.53;6188680;23;20078;-77
2022/12/21 05:50:25;;;;;;;20.67;12.73;;;;;;;7.32;100.00;100295.06;6212346;23;20047;-79
2022/12/21 05:52:51;;;;;;;22.00;14.25;;;;;;;7.32;100.00;100295.06;6235880;23;20062;-78
2022/12/21 05:55:18;;;;;;;19.02;12.98;;;;;;;7.31;100.00;100295.06;6213415;23;20364;-79
2022/12/21 05:57:45;;;;;;;18.20;13.05;;;;;;;7.30;100.00;100296.81;6212937;23;20096;-78
2022/12/21 06:00:23;;;;;;;16.33;12.70;;;;;;;7.33;100.00;100298.56;6217344;23;20008;-78
2022/12/21 06:02:49;;;;;;;17.70;13.15;;;;;;;7.33;100.00;100295.97;6194507;23;20048;-78
2022/12/21 06:05:16;;;;;;;17.90;11.98;;;;;;;7.33;100.00;100298.56;6214953;23;20070;-79
2022/12/21 06:07:42;;;;;;;17.35;12.20;;;;;;;7.35;100.00;100305.47;6187697;23;20836;-78
2022/12/21 06:10:10;;;;;;;17.73;12.23;;;;;;;7.35;100.00;100308.06;6212736;23;20012;-79
2022/12/21 06:12:58;;;;;;;18.30;12.02;;;;;;;7.37;100.00;100316.75;6211226;23;20350;-78
2022/12/21 06:20:07;;;;;;;17.42;12.02;;;;;;;7.35;100.00;100328.03;6113045;23;20835;-78
2022/12/21 06:22:35;;;;;;;16.90;11.82;;;;;;;7.33;100.00;100328.06;6109290;22;20013;-78
2022/12/21 06:28:51;;;;;;;17.98;11.90;;;;;;;7.35;100.00;100318.50;6157606;23;20020;-78
2022/12/21 06:31:41;;;;;;;20.13;13.02;;;;;;;7.33;100.00;100316.78;6216914;23;20201;-77
2022/12/21 06:34:13;;;;;;;16.48;12.20;;;;;;;7.33;100.00;100314.19;6210962;23;20012;-79
2022/12/21 06:39:55;;;;;;;18.77;12.40;;;;;;;7.28;100.00;100320.22;6210733;23;20447;-78
2022/12/21 06:42:35;;;;;;;17.95;12.48;;;;;;;7.28;100.00;100317.63;6215100;23;20093;-78
2022/12/21 06:47:58;;;;;;;;;;;;;;;7.27;100.00;100325.44;6189875;23;20435;-78
2022/12/21 06:50:35;;;;;;;16.42;10.88;;;;;;;7.24;100.00;100325.47;6235695;23;19934;-78
2022/12/21 06:53:09;;;;;;;19.45;11.20;;;;;;;7.24;100.00;100321.09;6185461;23;20013;-78
2022/12/21 06:55:36;;;;;;;18.10;11.40;;;;;;;7.26;100.00;100336.72;6212703;23;20012;-80
2022/12/21 06:58:03;;;;;;;16.88;11.30;;;;;;;7.26;100.00;100335.00;6212357;23;20223;-78
2022/12/21 07:00:29;;;;;;;16.13;11.20;;;;;;;7.28;100.00;100335.00;6238585;23;20235;-78
2022/12/21 07:02:56;;;;;;;17.50;11.05;;;;;;;7.29;100.00;100339.34;6212098;23;20016;-78
2022/12/21 07:05:23;;;;;;;17.83;11.48;;;;;;;7.29;100.00;100342.81;6214234;23;20016;-78
2022/12/21 07:07:50;;;;;;;17.85;11.48;;;;;;;7.29;100.00;100345.41;6188965;23;20028;-77
2022/12/21 07:10:16;;;;;;;21.75;13.15;;;;;;;7.30;100.00;100351.50;6212559;23;20016;-78
2022/12/21 07:12:43;;;;;;;15.45;11.43;;;;;;;7.31;100.00;100348.00;6211510;23;20012;-78
2022/12/21 07:15:10;;;;;;;20.23;12.68;;;;;;;7.32;100.00;100347.16;6215533;23;20470;-79
2022/12/21 07:17:37;;;;;;;17.85;12.90;;;;;;;7.33;100.00;100348.03;6214652;23;20095;-78
2022/12/21 07:20:03;;;;;;;18.60;12.82;;;;;;;7.33;100.00;100351.50;6215544;23;20031;-78
2022/12/21 07:22:30;;;;;;;20.08;12.90;;;;;;;7.35;100.00;100344.53;6189213;23;20020;-79
2022/12/21 07:24:56;;;;;;;18.42;12.18;;;;;;;7.35;100.00;100343.66;6241378;23;20012;-78
2022/12/21 07:27:23;;;;;;;19.17;12.82;;;;;;;7.35;100.00;100347.13;6190309;23;20016;-79
2022/12/21 07:29:50;;;;;;;20.48;12.52;;;;;;;7.37;100.00;100353.22;6241983;23;20047;-78
2022/12/21 07:32:16;;;;;;;19.45;12.85;;;;;;;7.38;100.00;100354.97;6238435;23;20016;-79
2022/12/21 07:34:43;;;;;;;20.67;13.32;;;;;;;7.39;100.00;100351.50;6213898;23;20086;-78
2022/12/21 07:37:09;;;;;;;21.10;12.48;;;;;;;7.39;100.00;100353.22;6190673;23;20365;-78
2022/12/21 07:39:36;;;;;;;26.42;15.27;;;;;;;7.39;100.00;100345.41;6189573;23;20026;-78
2022/12/21 07:42:03;;;;;;;28.05;15.18;;;;;;;7.37;100.00;100342.81;6213189;23;20011;-78
2022/12/21 07:44:30;;;;;;;22.98;14.13;;;;;;;7.37;100.00;100348.00;6188729;23;20020;-78
2022/12/21 07:46:56;;;;;;;24.02;14.40;;;;;;;7.37;100.00;100347.16;6188908;23;20079;-78
2022/12/21 07:49:23;;;;;;;24.63;14.18;;;;;;;7.39;100.00;100343.69;6214305;23;20095;-79
2022/12/21 07:51:51;;;;;;;23.50;13.55;;;;;;;7.38;100.00;100335.84;6214266;23;20009;-77
2022/12/21 07:54:18;;;;;;;22.83;13.93;;;;;;;7.37;100.00;100340.19;6191469;23;20107;-78
2022/12/21 07:56:44;;;;;;;18.80;12.05;;;;;;;7.38;100.00;100339.34;6214132;23;20428;-78
2022/12/21 07:59:11;;;;;;;24.30;13.95;;;;;;;7.37;100.00;100337.59;6214146;23;20034;-77
2022/12/21 08:01:38;;;;;;;22.55;14.30;;;;;;;7.36;100.00;100332.38;6212360;23;20012;-78
2022/12/21 08:04:07;;;;;;;28.50;15.82;;;;;;;7.36;100.00;100335.00;6214079;23;20012;-78
2022/12/21 08:06:36;;;;;;;24.00;16.88;;;;;;;7.33;100.00;100340.22;6214550;23;20023;-77
2022/12/21 08:09:03;;;;;;;25.83;15.32;;;;;;;7.31;100.00;100332.38;6237573;23;20016;-76
2022/12/21 08:11:30;;;;;;;24.17;15.48;;;;;;;7.32;100.00;100344.53;6187851;23;20020;-78
2022/12/21 08:13:57;;;;;;;20.00;13.70;;;;;;;7.32;100.00;100348.91;6212888;23;20016;-77
2022/12/21 08:16:24;;;;;;;25.20;15.65;;;;;;;7.32;100.00;100346.28;6212433;23;20016;-78
2022/12/21 08:18:51;;;;;;;28.25;15.75;;;;;;;7.33;100.00;100341.06;6212734;23;20427;-77
2022/12/21 08:21:17;;;;;;;27.80;16.27;;;;;;;7.33;100.00;100341.06;6211642;23;20016;-77
2022/12/21 08:23:44;;;;;;;22.15;15.15;;;;;;;7.36;100.00;100353.22;6191894;23;20008;-77
2022/12/21 08:26:13;;;;;;;25.38;15.73;;;;;;;7.37;100.00;100336.75;6217734;23;20015;-78
2022/12/21 08:28:41;;;;;;;22.63;15.38;;;;;;;7.35;100.00;100348.88;6239699;23;20016;-78
2022/12/21 08:31:20;;;;;;;23.67;15.27;;;;;;;7.33;100.00;100340.22;6215725;23;20012;-79
2022/12/21 08:33:47;;;;;;;24.02;14.73;;;;;;;7.31;100.00;100342.78;6215932;23;20074;-77
2022/12/21 08:36:17;;;;;;;30.58;16.65;;;;;;;7.32;100.00;100331.53;6189673;23;20308;-77
2022/12/21 08:38:44;;;;;;;27.85;17.38;;;;;;;7.32;100.00;100325.47;6213495;23;20514;-78
2022/12/21 08:41:11;;;;;;;28.60;18.55;;;;;;;7.34;100.00;100332.41;6215661;23;20132;-77
2022/12/21 08:43:39;;;;;;;24.77;15.25;;;;;;;7.34;100.00;100348.03;6190212;23;20016;-77
2022/12/21 08:46:10;;;;;;;23.20;14.50;;;;;;;7.36;100.00;100342.81;6191307;23;20062;-77
2022/12/21 08:48:37;;;;;;;24.98;15.95;;;;;;;7.36;100.00;100342.81;6215756;23;20022;-79
2022/12/21 08:51:07;;;;;;;27.98;16.70;;;;;;;7.37;100.00;100345.41;6216962;23;20023;-77
2022/12/21 08:53:34;;;;;;;27.50;15.68;;;;;;;7.37;100.00;100344.56;6239713;23;20020;-78
2022/12/21 08:56:00;;;;;;;25.67;16.58;;;;;;;7.37;100.00;100353.22;6190350;23;20103;-78
2022/12/21 08:58:28;;;;;;;24.60;15.88;;;;;;;7.36;100.00;100355.81;6214415;23;20008;-78
2022/12/21 09:00:56;;;;;;;21.33;14.52;;;;;;;7.35;100.00;100349.72;6214652;23;20016;-78
2022/12/21 09:03:26;;;;;;;26.50;14.93;;;;;;;7.36;100.00;100353.22;6187638;23;20452;-79
2022/12/21 09:06:03;;;;;;;26.33;17.33;;;;;;;7.35;100.00;100348.88;6214380;23;20023;-77
2022/12/21 09:08:30;;;;;;;23.67;13.68;;;;;;;7.33;100.00;100348.88;6214669;23;20717;-78
2022/12/21 09:11:10;;;;;;;25.48;16.25;;;;;;;7.34;100.00;100350.63;6214689;23;20030;-78
2022/12/21 09:13:38;;;;;;;25.17;15.05;;;;;;;7.35;100.00;100351.47;6187656;23;20031;-78
2022/12/21 09:16:14;;;;;;;26.35;14.95;;;;;;;7.36;100.00;100353.22;6188624;23;20016;-79
2022/12/21 09:19:05;;;;;;;25.98;14.07;;;;;;;7.37;100.00;100355.81;6213062;23;20129;-78
2022/12/21 09:21:54;;;;;;;22.25;13.20;;;;;;;7.37;100.00;100363.63;6211128;23;20023;-79
2022/12/21 09:24:45;;;;;;;;;;;;;;;;;;;;;
2022/12/21 09:27:16;;;;;;;25.42;15.23;;;;;;;7.38;100.00;100362.78;6190466;23;20008;-78
2022/12/21 09:29:44;;;;;;;25.65;14.82;;;;;;;7.40;100.00;100358.41;6212683;23;20012;-78
2022/12/21 09:32:11;;;;;;;20.35;13.07;;;;;;;7.44;100.00;100354.06;6237742;23;20107;-78
2022/12/21 09:34:38;;;;;;;23.20;13.98;;;;;;;7.49;100.00;100338.47;6213119;23;20052;-78
2022/12/21 09:37:04;;;;;;;22.25;13.80;;;;;;;7.53;100.00;100322.81;6213874;23;20070;-79
2022/12/21 09:39:31;;;;;;;20.70;13.23;;;;;;;7.59;100.00;100325.41;6213690;23;20066;-79
2022/12/21 09:42:16;;;;;;;19.20;12.70;;;;;;;7.65;100.00;100323.66;6213365;23;20016;-79
2022/12/21 09:45:22;;;;;;;25.40;14.48;;;;;;;7.69;100.00;100335.81;6241303;23;20016;-79
2022/12/21 09:48:01;;;;;;;23.48;14.73;;;;;;;7.73;100.00;100328.00;6189179;23;20095;-77
2022/12/21 09:50:46;;;;;;;24.50;13.88;;;;;;;7.74;100.00;100337.56;6216860;23;20051;-79
2022/12/21 09:53:26;;;;;;;17.17;11.15;;;;;;;7.75;100.00;100335.81;6213100;23;20115;-78
2022/12/21 09:55:59;;;;;;;19.08;12.57;;;;;;;7.77;100.00;100334.06;6214972;23;20008;-78
2022/12/21 09:58:36;;;;;;;19.60;12.82;;;;;;;7.75;100.00;100341.88;6188360;23;20020;-78
2022/12/21 10:01:19;;;;;;;25.35;14.32;;;;;;;7.75;100.00;100341.88;6214776;23;20495;-78
2022/12/21 10:04:08;;;;;;;22.58;14.05;;;;;;;7.71;100.00;100341.91;6244723;22;20018;-77
2022/12/21 10:07:03;;;;;;;21.52;14.25;;;;;;;7.69;100.00;100334.09;6222670;23;20012;-78
2022/12/21 10:09:48;;;;;;;21.38;12.80;;;;;;;7.69;100.00;100335.81;6246050;23;20016;-78
2022/12/21 10:12:28;;;;;;;21.17;12.20;;;;;;;7.71;100.00;100336.69;6190723;23;20044;-77
2022/12/21 10:15:19;;;;;;;19.85;13.23;;;;;;;7.72;100.00;100331.47;6220380;23;20042;-77
2022/12/21 10:18:20;;;;;;;23.08;12.82;;;;;;;7.72;100.00;100326.25;6195039;23;20103;-78
2022/12/21 10:21:42;;;;;;;18.25;12.02;;;;;;;7.76;100.00;100324.50;6193627;23;20020;-79
2022/12/21 10:24:22;;;;;;;19.80;12.15;;;;;;;7.81;100.00;100327.09;6219874;23;20680;-77
2022/12/21 10:26:55;;;;;;;23.60;13.00;;;;;;;7.81;100.00;100322.75;6224669;23;20034;-78
2022/12/21 10:29:33;;;;;;;20.42;12.73;;;;;;;7.85;100.00;100315.78;6225768;23;20103;-78
2022/12/21 10:32:00;;;;;;;17.17;11.65;;;;;;;7.89;100.00;100318.38;6222500;23;20075;-78
2022/12/21 10:34:40;;;;;;;19.52;10.98;;;;;;;7.91;100.00;100314.03;6194502;23;20012;-77
2022/12/21 10:37:17;;;;;;;24.38;14.35;;;;;;;7.94;100.00;100310.56;6219494;23;20016;-78
2022/12/21 10:39:44;;;;;;;15.27;11.05;;;;;;;7.93;100.00;100314.88;6201881;23;20028;-77
2022/12/21 10:42:33;;;;;;;16.60;11.90;;;;;;;7.93;100.00;100311.44;6254284;23;20014;-77
2022/12/21 10:45:00;;;;;;;20.38;13.27;;;;;;;7.89;100.00;100313.16;6228430;23;20016;-79
2022/12/21 10:47:26;;;;;;;17.70;12.68;;;;;;;7.89;100.00;100305.34;6229861;23;20055;-77
2022/12/21 10:50:06;;;;;;;19.75;12.13;;;;;;;7.86;100.00;100294.94;6206500;23;20339;-75
2022/12/21 10:52:39;;;;;;;19.65;13.40;;;;;;;7.89;100.00;100286.25;6247727;23;20012;-77
2022/12/21 10:55:26;;;;;;;16.63;11.00;;;;;;;7.89;100.00;100287.09;6195500;23;20107;-77
2022/12/21 10:58:02;;;;;;;19.75;12.45;;;;;;;7.91;100.00;100281.88;6194792;23;20514;-77
2022/12/21 11:00:35;;;;;;;19.08;12.48;;;;;;;7.89;100.00;100292.31;6218651;23;20020;-77
2022/12/21 11:03:07;;;;;;;;;;;;;;;7.86;100.00;100281.91;6217379;23;20039;-77
2022/12/21 11:05:51;;;;;;;15.48;10.93;;;;;;;7.87;100.00;100285.38;6218695;23;19915;-77
2022/12/21 11:08:32;;;;;;;16.02;10.63;;;;;;;7.83;100.00;100284.50;6191530;23;20390;-77
2022/12/21 11:11:37;;;;;;;19.02;13.48;;;;;;;7.87;100.00;100287.97;6192919;23;20012;-77
2022/12/21 11:14:16;;;;;;;17.92;11.80;;;;;;;7.85;100.00;100285.38;6213362;23;20020;-76
2022/12/21 11:16:48;;;;;;;24.80;13.25;;;;;;;7.86;100.00;100287.13;6192162;23;20059;-77
2022/12/21 11:23:16;;;;;;;19.92;12.23;;;;;;;7.87;100.00;100283.63;6226582;23;20074;-77
2022/12/21 11:25:43;;;;;;;18.90;11.75;;;;;;;7.88;100.00;100277.53;6188317;23;20104;-76
2022/12/21 11:28:10;;;;;;;21.42;13.35;;;;;;;7.91;100.00;100276.66;6188236;23;20019;-77
2022/12/21 11:30:38;;;;;;;17.73;11.35;;;;;;;7.91;100.00;100271.47;6189675;23;20035;-78
2022/12/21 11:33:06;;;;;;;15.10;10.45;;;;;;;7.94;100.00;100277.53;6189621;23;20084;-77
2022/12/21 11:35:34;;;;;;;16.50;11.40;;;;;;;7.95;100.00;100270.56;6215382;23;20016;-75
2022/12/21 11:38:14;;;;;;;18.13;11.48;;;;;;;7.95;100.00;100266.25;6214822;23;20013;-76
2022/12/21 11:40:57;;;;;;;16.67;11.25;;;;;;;8.02;100.00;100274.03;6242727;23;20084;-76
2022/12/21 11:43:24;;;;;;;15.45;10.50;;;;;;;8.16;100.00;100274.84;6189818;23;20435;-76
2022/12/21 11:46:12;;;;;;;15.80;10.55;;;;;;;8.35;100.00;100272.13;6191404;23;20100;-77
2022/12/21 11:49:12;;;;;;;16.00;11.18;;;;;;;8.47;100.00;100285.09;6215254;23;20027;-76
2022/12/21 11:52:17;;;;;;;14.35;10.30;;;;;;;8.52;100.00;100266.81;6241343;23;20027;-75
2022/12/21 11:55:08;;;;;;;;;;;;;;;8.67;100.00;100263.22;6190381;23;20067;-77
2022/12/21 11:57:47;;;;;;;12.63;7.90;;;;;;;8.95;100.00;100245.59;6213106;23;19916;-77
2022/12/21 12:00:20;;;;;;;14.02;8.88;;;;;;;8.99;100.00;100255.13;6241048;23;20073;-77
2022/12/21 12:03:30;;;;;;;9.70;8.13;;;;;;;8.82;100.00;100255.28;6213254;23;20012;-76
2022/12/21 12:06:24;;;;;;;8.77;7.55;;;;;;;8.67;100.00;100260.63;6186143;23;20023;-76
2022/12/21 12:09:24;;;;;;;9.85;8.05;;;;;;;8.55;100.00;100256.34;6241945;23;20016;-76
2022/12/21 12:12:30;;;;;;;8.80;7.10;;;;;;;8.43;100.00;100257.28;6197752;23;20048;-76
2022/12/21 12:15:37;;;;;;;8.98;7.85;;;;;;;8.37;100.00;100263.41;6203933;23;20024;-76
2022/12/21 12:18:19;;;;;;;10.02;7.57;;;;;;;8.34;100.00;100259.94;6211503;23;20503;-77